Time;durP1;ratioP1;P1;durP2;ratioP2;P2;SDS_P1;SDS_P2;PMS_P1;PMS_P2;Temp;Humidity;BMP_temperature;BMP_pressure;BME280_temperature;BME280_humidity;BME280_pressure;Samples;Min_cycle;Max_cycle;Signal;HPM_P1;HPM_P2
2021/07/29 00:02:13;;;;;;;15.63;5.87;;;;;;;18.02;77.92;99968.23;125864;1093;26540;-62
2021/07/29 00:04:45;;;;;;;18.13;7.23;;;;;;;17.99;77.75;99978.54;125885;1093;25919;-63
2021/07/29 00:07:16;;;;;;;18.23;5.90;;;;;;;17.99;77.98;99969.30;125963;1093;22828;-62
2021/07/29 00:09:49;;;;;;;16.50;6.33;;;;;;;17.95;77.65;99963.97;125936;1093;22860;-62
2021/07/29 00:12:21;;;;;;;14.53;6.47;;;;;;;17.91;77.81;99960.70;125838;1093;29792;-62
2021/07/29 00:14:54;;;;;;;18.70;6.13;;;;;;;17.88;77.51;99958.93;125844;1091;28035;-62
2021/07/29 00:19:00;;;;;;;14.57;5.83;;;;;;;17.85;77.64;99956.42;125782;1092;26267;-62
2021/07/29 00:20:23;;;;;;;14.40;6.23;;;;;;;17.84;77.72;99952.06;125841;1093;22803;-62
2021/07/29 00:23:01;;;;;;;14.30;5.97;;;;;;;17.83;77.32;99953.38;125873;1093;25918;-62
2021/07/29 00:25:33;;;;;;;17.35;6.30;;;;;;;17.81;77.75;99953.92;125834;1093;22804;-62
2021/07/29 00:28:05;;;;;;;16.10;5.77;;;;;;;17.81;77.50;99965.22;125969;1093;22774;-62
2021/07/29 00:30:36;;;;;;;15.30;6.20;;;;;;;17.79;77.45;99962.91;126045;1093;22778;-62
2021/07/29 00:33:08;;;;;;;17.20;6.17;;;;;;;17.79;77.57;99959.34;125998;1093;22853;-62
2021/07/29 00:35:40;;;;;;;16.10;7.37;;;;;;;17.78;77.59;99957.80;125966;1093;25854;-62
2021/07/29 00:38:11;;;;;;;15.30;7.10;;;;;;;17.75;77.21;99956.06;125929;1093;22879;-62
2021/07/29 00:40:42;;;;;;;16.70;6.50;;;;;;;17.74;77.57;99957.34;125845;1093;24236;-62
2021/07/29 00:43:16;;;;;;;23.53;7.70;;;;;;;17.71;77.39;99959.17;125848;1093;23295;-62
2021/07/29 00:45:48;;;;;;;15.05;6.25;;;;;;;17.69;77.64;99955.39;125977;1093;22871;-61
2021/07/29 00:48:21;;;;;;;16.80;7.70;;;;;;;17.66;77.23;99974.15;125912;1092;22804;-62
2021/07/29 00:50:52;;;;;;;16.30;7.40;;;;;;;17.63;77.54;99972.38;125715;1093;22804;-62
2021/07/29 00:53:24;;;;;;;18.47;6.67;;;;;;;17.61;77.76;99968.56;125899;1093;22758;-62
2021/07/29 00:55:56;;;;;;;16.57;7.03;;;;;;;17.57;77.51;99963.23;125958;1093;22840;-61
2021/07/29 00:58:28;;;;;;;14.93;6.57;;;;;;;17.54;77.20;99969.96;125844;1093;22838;-62
2021/07/29 01:01:00;;;;;;;16.17;6.90;;;;;;;17.46;77.35;99962.59;126042;1093;22941;-62
2021/07/29 01:03:31;;;;;;;17.90;5.60;;;;;;;17.43;77.19;99966.48;125875;1092;22806;-62
2021/07/29 01:06:03;;;;;;;16.80;5.60;;;;;;;17.41;77.56;99969.07;125970;1093;22800;-62
2021/07/29 01:08:54;;;;;;;17.80;7.30;;;;;;;17.36;77.22;99967.84;125839;1093;24651;-62
2021/07/29 01:11:27;;;;;;;14.97;6.77;;;;;;;17.31;77.21;99968.69;125846;1092;26273;-62
2021/07/29 01:13:58;;;;;;;15.90;6.40;;;;;;;17.28;77.36;99961.28;125924;1093;22801;-62
2021/07/29 01:16:29;;;;;;;14.65;6.55;;;;;;;17.24;77.34;99963.63;125894;1093;22773;-62
2021/07/29 01:19:02;;;;;;;19.10;8.25;;;;;;;17.20;77.63;99959.58;125831;1093;26516;-62
2021/07/29 01:21:34;;;;;;;13.05;5.05;;;;;;;17.16;77.56;99970.41;125911;1093;24434;-62
2021/07/29 01:24:07;;;;;;;14.35;5.40;;;;;;;17.14;77.59;99959.66;125793;1093;24437;-62
2021/07/29 01:26:38;;;;;;;15.23;6.27;;;;;;;17.13;77.49;99963.80;126044;1092;22785;-62
2021/07/29 01:29:10;;;;;;;19.90;6.60;;;;;;;17.13;77.33;99963.80;125817;1092;22826;-62
2021/07/29 01:31:41;;;;;;;13.95;6.00;;;;;;;17.14;77.62;99958.89;125958;1092;22860;-62
2021/07/29 01:34:13;;;;;;;17.80;6.00;;;;;;;17.13;77.66;99955.33;125900;1093;22761;-62
2021/07/29 01:36:45;;;;;;;17.47;5.80;;;;;;;17.14;77.65;99962.48;126016;1093;22800;-62
2021/07/29 01:39:17;;;;;;;12.50;5.20;;;;;;;17.12;77.20;99958.66;125872;1093;26287;-62
2021/07/29 01:41:49;;;;;;;15.55;5.45;;;;;;;17.12;77.20;99958.66;125971;1093;22808;-62
2021/07/29 01:44:20;;;;;;;16.93;5.67;;;;;;;17.10;77.62;99955.61;125811;1093;27970;-61
2021/07/29 01:46:51;;;;;;;13.85;5.90;;;;;;;17.09;77.29;99962.56;125856;1093;22801;-63
2021/07/29 01:49:25;;;;;;;13.65;4.55;;;;;;;17.07;77.38;99970.78;125950;1093;22934;-63
2021/07/29 01:51:59;;;;;;;19.45;6.40;;;;;;;17.04;77.59;99960.55;125863;1093;23482;-62
2021/07/29 01:54:30;;;;;;;16.60;5.85;;;;;;;17.02;77.25;99954.68;126261;1093;22860;-62
2021/07/29 01:57:03;;;;;;;15.30;6.40;;;;;;;16.99;77.22;99959.31;126169;1093;22787;-62
2021/07/29 01:59:36;;;;;;;14.07;5.77;;;;;;;16.95;77.30;99958.85;125962;1093;22831;-62
2021/07/29 02:02:09;;;;;;;17.05;4.80;;;;;;;16.92;77.40;99951.47;125913;1093;22803;-62
2021/07/29 02:04:40;;;;;;;12.40;4.20;;;;;;;16.88;77.29;99951.00;126019;1093;22828;-61
2021/07/29 02:07:14;;;;;;;14.90;5.25;;;;;;;16.87;77.30;99958.69;125878;1092;22958;-61
2021/07/29 02:09:45;;;;;;;16.30;5.05;;;;;;;16.84;77.54;99947.72;125920;1092;22801;-63
2021/07/29 02:12:16;;;;;;;11.60;4.05;;;;;;;16.80;77.24;99953.63;126005;1092;22937;-62
2021/07/29 02:14:48;;;;;;;14.90;3.95;;;;;;;16.78;77.27;99950.58;125779;1093;22803;-63
2021/07/29 02:17:22;;;;;;;12.00;4.65;;;;;;;16.77;77.20;99956.75;125879;1093;22795;-61
2021/07/29 02:19:54;;;;;;;12.05;4.15;;;;;;;16.78;77.17;99961.86;126044;1092;24481;-61
2021/07/29 02:22:25;;;;;;;12.10;4.30;;;;;;;16.76;77.64;99955.98;125952;1093;23029;-61
2021/07/29 02:24:57;;;;;;;11.30;4.00;;;;;;;16.72;77.23;99960.38;125881;1093;23172;-61
2021/07/29 02:27:29;;;;;;;12.90;3.15;;;;;;;16.67;77.60;99958.41;125889;1093;25835;-61
2021/07/29 02:30:00;;;;;;;10.25;3.90;;;;;;;16.62;77.29;99957.16;126149;1093;22780;-61
2021/07/29 02:32:32;;;;;;;12.95;3.85;;;;;;;16.59;77.45;99960.28;125810;1093;22854;-61
2021/07/29 02:35:04;;;;;;;15.45;3.55;;;;;;;16.58;77.37;99955.92;125907;1092;22822;-61
2021/07/29 02:37:36;;;;;;;10.80;3.50;;;;;;;16.54;77.56;99955.45;125819;1093;26674;-61
2021/07/29 02:40:11;;;;;;;13.85;3.80;;;;;;;16.53;77.23;99943.41;125951;1093;22864;-61
2021/07/29 02:42:42;;;;;;;15.57;3.63;;;;;;;16.50;77.38;99957.80;125891;1093;24476;-61
2021/07/29 02:45:15;;;;;;;11.10;3.30;;;;;;;16.47;77.43;99962.39;125973;1092;22826;-61
2021/07/29 02:47:47;;;;;;;15.80;3.45;;;;;;;16.43;77.32;99953.47;125852;1093;22800;-61
2021/07/29 02:50:18;;;;;;;13.60;3.40;;;;;;;16.41;77.53;99958.86;125994;1093;25858;-61
2021/07/29 02:52:50;;;;;;;10.70;2.80;;;;;;;16.39;77.39;99960.70;125910;1092;22900;-61
2021/07/29 02:55:21;;;;;;;12.55;3.25;;;;;;;16.38;77.09;99959.93;125953;1093;22780;-61
2021/07/29 02:57:53;;;;;;;10.55;2.80;;;;;;;16.41;77.39;99963.75;125811;1093;23508;-61
2021/07/29 03:00:25;;;;;;;13.35;3.90;;;;;;;16.42;77.18;99966.05;125774;1092;22803;-61
2021/07/29 03:02:56;;;;;;;13.00;3.40;;;;;;;16.40;77.44;99957.35;125892;1093;22883;-61
2021/07/29 03:05:29;;;;;;;11.10;3.40;;;;;;;16.36;77.50;99954.06;125779;1093;22777;-61
2021/07/29 03:08:02;;;;;;;14.80;4.10;;;;;;;16.32;77.52;99962.04;125850;1093;22850;-61
2021/07/29 03:10:34;;;;;;;10.95;3.40;;;;;;;16.28;77.44;99955.92;125875;1092;22777;-61
2021/07/29 03:13:05;;;;;;;13.35;4.20;;;;;;;16.22;77.63;99955.21;125856;1093;22800;-61
2021/07/29 03:15:37;;;;;;;12.70;3.70;;;;;;;16.16;77.88;99954.47;125852;1093;23250;-61
2021/07/29 03:18:09;;;;;;;13.65;4.05;;;;;;;16.11;77.70;99953.25;125989;1093;22915;-61
2021/07/29 03:20:44;;;;;;;14.40;3.40;;;;;;;16.08;77.97;99953.52;125821;1093;22873;-61
2021/07/29 03:23:16;;;;;;;11.37;3.60;;;;;;;16.06;78.14;99959.67;125908;1093;22883;-61
2021/07/29 03:25:51;;;;;;;11.75;4.15;;;;;;;16.02;78.01;99958.42;125931;1093;22804;-61
2021/07/29 03:28:23;;;;;;;8.80;3.05;;;;;;;16.02;78.17;99970.46;125864;1093;24519;-61
2021/07/29 03:30:55;;;;;;;13.43;3.13;;;;;;;16.03;77.91;99960.73;125856;1093;22957;-61
2021/07/29 03:33:27;;;;;;;11.97;3.40;;;;;;;16.05;78.26;99965.84;125827;1092;22852;-61
2021/07/29 03:36:06;;;;;;;11.08;3.53;;;;;;;16.03;77.99;99962.78;126547;1093;83657;-77
2021/07/29 03:38:37;;;;;;;11.35;3.60;;;;;;;16.01;78.82;99965.36;126285;1093;27233;-77
2021/07/29 03:41:13;;;;;;;12.23;4.43;;;;;;;16.01;78.64;99968.95;126421;1093;22906;-77
2021/07/29 03:43:44;;;;;;;14.87;4.93;;;;;;;16.01;78.71;99968.95;126339;1092;23559;-78
2021/07/29 03:46:15;;;;;;;13.80;4.35;;;;;;;15.99;78.84;99963.05;126347;1093;22803;-77
2021/07/29 03:48:47;;;;;;;14.60;4.15;;;;;;;15.96;79.27;99966.92;126311;1092;22857;-77
2021/07/29 03:51:18;;;;;;;13.25;4.80;;;;;;;15.93;79.21;99967.21;126313;1093;23686;-77
2021/07/29 03:53:50;;;;;;;15.60;4.40;;;;;;;15.91;78.88;99972.60;126410;1092;22834;-78
2021/07/29 03:56:22;;;;;;;21.05;5.15;;;;;;;15.90;79.27;99977.46;126382;1092;22782;-77
2021/07/29 03:58:53;;;;;;;16.95;4.65;;;;;;;15.93;79.42;99978.48;126324;1092;22973;-77
2021/07/29 04:01:24;;;;;;;13.47;4.93;;;;;;;15.94;79.62;99980.76;126284;1093;22806;-78
2021/07/29 04:03:56;;;;;;;17.15;4.70;;;;;;;15.94;79.14;99983.58;126313;1093;23005;-78
2021/07/29 04:06:30;;;;;;;11.83;4.27;;;;;;;15.99;79.58;99982.02;126542;1093;23582;-77
2021/07/29 04:09:04;;;;;;;22.33;5.00;;;;;;;16.01;79.39;99987.88;126294;1092;22799;-77
2021/07/29 04:11:36;;;;;;;14.87;4.80;;;;;;;16.03;79.82;99983.27;126258;1093;22807;-78
2021/07/29 04:14:07;;;;;;;19.53;4.73;;;;;;;16.04;79.62;99987.59;126276;1093;25893;-77
2021/07/29 04:16:39;;;;;;;19.45;5.35;;;;;;;16.05;79.61;99994.77;126227;1093;22783;-77
2021/07/29 04:19:10;;;;;;;13.55;4.15;;;;;;;16.08;79.80;99992.94;126252;1092;22860;-77
2021/07/29 04:21:41;;;;;;;16.75;5.15;;;;;;;16.13;79.78;99989.33;126279;1093;22890;-78
2021/07/29 04:24:12;;;;;;;15.90;4.30;;;;;;;16.16;79.97;99994.67;126286;1092;22803;-77
2021/07/29 04:26:43;;;;;;;17.85;4.80;;;;;;;16.19;79.92;99992.86;126307;1093;22800;-77
2021/07/29 04:29:15;;;;;;;16.30;4.40;;;;;;;16.22;79.71;99989.02;126293;1092;22821;-77
2021/07/29 04:31:47;;;;;;;9.95;4.05;;;;;;;16.27;80.05;99988.19;126380;1092;22920;-76
2021/07/29 04:34:19;;;;;;;15.10;4.90;;;;;;;16.31;80.09;99991.48;126300;1093;22764;-77
2021/07/29 04:36:52;;;;;;;13.10;4.80;;;;;;;16.36;80.10;99996.31;126402;1093;22788;-77
2021/07/29 04:39:26;;;;;;;18.10;4.70;;;;;;;16.42;80.04;99996.27;126354;1093;23027;-77
2021/07/29 04:41:57;;;;;;;17.20;4.85;;;;;;;16.47;79.97;99998.28;126249;1093;22845;-77
2021/07/29 04:44:29;;;;;;;20.20;4.80;;;;;;;16.51;80.16;99995.97;126258;1093;24607;-77
2021/07/29 04:47:00;;;;;;;10.60;3.95;;;;;;;16.58;80.49;100003.83;126274;1093;24989;-77
2021/07/29 04:49:34;;;;;;;16.20;5.50;;;;;;;16.60;80.42;100016.11;126290;1093;27214;-77
2021/07/29 04:52:07;;;;;;;20.05;5.40;;;;;;;16.65;80.35;100011.72;126267;1093;22796;-77
2021/07/29 04:54:40;;;;;;;18.20;5.25;;;;;;;16.69;80.54;100017.83;126289;1092;22837;-76
2021/07/29 04:57:12;;;;;;;17.40;5.30;;;;;;;16.73;81.01;100013.44;126283;1093;23015;-76
2021/07/29 04:59:43;;;;;;;19.70;5.20;;;;;;;16.79;80.93;100022.60;126345;1093;22906;-77
2021/07/29 05:02:18;;;;;;;15.90;4.70;;;;;;;16.85;80.58;100017.66;126287;1093;25870;-76
2021/07/29 05:04:50;;;;;;;17.90;5.90;;;;;;;16.88;80.64;100015.86;126377;1093;22867;-76
2021/07/29 05:07:22;;;;;;;13.55;5.10;;;;;;;16.95;80.77;100015.25;126321;1093;23452;-76
2021/07/29 05:09:53;;;;;;;18.15;4.70;;;;;;;17.01;81.25;100027.23;126286;1092;23393;-76
2021/07/29 05:12:26;;;;;;;17.55;5.25;;;;;;;17.06;81.03;100009.50;126346;1093;24630;-76
2021/07/29 05:14:58;;;;;;;21.60;5.75;;;;;;;17.13;80.96;100014.56;126504;1093;24821;-76
2021/07/29 05:17:29;;;;;;;17.00;4.70;;;;;;;17.20;81.12;100016.77;126368;1092;22826;-76
2021/07/29 05:20:00;;;;;;;26.87;5.90;;;;;;;17.26;81.40;100014.65;126339;1093;23766;-77
2021/07/29 05:22:31;;;;;;;16.35;4.75;;;;;;;17.35;81.63;100019.17;126281;1093;22799;-75
2021/07/29 05:25:02;;;;;;;18.30;4.40;;;;;;;17.41;81.33;100012.17;126246;1092;25980;-78
2021/07/29 05:27:34;;;;;;;15.03;4.07;;;;;;;17.48;81.47;100022.09;126300;1093;22802;-76
2021/07/29 05:30:07;;;;;;;13.60;4.65;;;;;;;17.59;81.31;100017.09;126281;1093;27236;-77
2021/07/29 05:32:39;;;;;;;14.90;4.43;;;;;;;17.66;80.89;100019.31;126294;1093;22947;-77
2021/07/29 05:35:14;;;;;;;12.83;4.57;;;;;;;17.74;81.23;100017.41;126367;1093;25483;-77
2021/07/29 05:37:45;;;;;;;19.25;5.50;;;;;;;17.83;81.56;100019.09;126282;1093;22790;-78
2021/07/29 05:40:17;;;;;;;14.85;5.00;;;;;;;17.88;81.19;100023.14;126659;1092;26635;-77
2021/07/29 05:42:48;;;;;;;19.60;5.00;;;;;;;17.94;81.47;100018.17;126434;1093;22981;-77
2021/07/29 05:45:20;;;;;;;21.65;5.30;;;;;;;18.01;81.47;100017.54;126342;1093;24451;-78
2021/07/29 05:47:51;;;;;;;11.55;4.55;;;;;;;18.10;81.71;100017.92;126456;1093;22802;-78
2021/07/29 05:50:23;;;;;;;12.00;5.25;;;;;;;18.22;81.67;100024.16;126391;1093;22795;-78
2021/07/29 05:52:54;;;;;;;13.50;5.00;;;;;;;18.28;81.35;100017.13;126361;1093;22841;-77
2021/07/29 05:55:25;;;;;;;15.67;5.37;;;;;;;18.36;81.76;100026.50;126332;1093;22844;-77
2021/07/29 05:57:56;;;;;;;14.10;5.53;;;;;;;18.47;81.65;100019.94;126350;1093;23621;-77
2021/07/29 06:00:29;;;;;;;17.83;5.40;;;;;;;18.56;81.94;100019.51;126375;1093;22806;-78
2021/07/29 06:03:02;;;;;;;15.33;5.27;;;;;;;18.69;81.68;100016.72;126376;1093;22853;-77
2021/07/29 06:05:33;;;;;;;14.67;4.93;;;;;;;18.80;81.46;100015.77;126301;1092;26302;-77
2021/07/29 06:08:04;;;;;;;13.40;4.70;;;;;;;18.89;81.45;100024.58;126379;1093;23632;-77
2021/07/29 06:10:36;;;;;;;18.50;6.63;;;;;;;18.98;81.31;100012.08;126365;1093;22833;-77
2021/07/29 06:13:07;;;;;;;16.73;4.68;;;;;;;19.05;80.78;100023.53;126315;1092;25886;-78
2021/07/29 06:15:41;;;;;;;10.38;4.20;;;;;;;19.13;80.95;100013.09;126346;1093;22865;-76
2021/07/29 06:18:13;;;;;;;12.75;5.20;;;;;;;19.18;80.65;100017.86;126380;1092;27229;-77
2021/07/29 06:20:52;;;;;;;14.18;4.53;;;;;;;19.23;80.43;100017.00;126342;1093;22807;-78
2021/07/29 06:23:24;;;;;;;13.18;4.73;;;;;;;19.28;80.20;100018.94;126369;1093;22806;-77
2021/07/29 06:25:55;;;;;;;13.73;5.13;;;;;;;19.36;80.47;100010.60;126296;1091;22960;-78
2021/07/29 06:28:31;;;;;;;10.37;4.17;;;;;;;19.42;80.02;100014.08;126346;1093;22743;-77
2021/07/29 06:31:03;;;;;;;11.00;4.38;;;;;;;19.50;79.78;100012.11;126339;1093;25517;-77
2021/07/29 06:33:34;;;;;;;13.35;4.25;;;;;;;19.58;80.32;100012.20;126396;1093;22823;-77
2021/07/29 06:36:06;;;;;;;12.45;4.50;;;;;;;19.67;79.59;100009.69;126432;1093;25859;-77
2021/07/29 06:38:38;;;;;;;9.83;3.97;;;;;;;19.73;79.36;100018.05;126400;1093;22802;-76
2021/07/29 06:41:10;;;;;;;13.48;4.20;;;;;;;19.81;79.19;100018.91;126361;1093;23231;-77
2021/07/29 06:43:41;;;;;;;10.05;4.18;;;;;;;19.88;79.06;100021.84;126641;1092;26315;-77
2021/07/29 06:46:12;;;;;;;12.03;4.13;;;;;;;19.96;79.06;100021.92;126359;1092;22944;-78
2021/07/29 06:48:44;;;;;;;9.83;3.70;;;;;;;20.01;78.18;100016.13;126379;1093;24634;-77
2021/07/29 06:51:15;;;;;;;9.85;4.43;;;;;;;20.10;78.30;100026.23;126284;1092;22782;-77
2021/07/29 06:53:46;;;;;;;12.08;4.43;;;;;;;20.23;78.43;100023.39;126313;1091;22780;-78
2021/07/29 06:56:21;;;;;;;14.15;3.85;;;;;;;20.31;78.27;100018.55;126289;1093;22826;-77
2021/07/29 06:58:52;;;;;;;12.90;3.95;;;;;;;20.36;77.96;100017.64;126352;1093;22788;-77
2021/07/29 07:01:24;;;;;;;13.53;4.40;;;;;;;20.40;77.39;100012.38;126370;1091;22858;-77
2021/07/29 07:03:55;;;;;;;12.68;3.63;;;;;;;20.47;77.08;100013.77;126344;1093;26262;-77
2021/07/29 07:06:27;;;;;;;12.93;3.98;;;;;;;20.52;76.59;100007.98;126398;1093;22774;-77
2021/07/29 07:09:00;;;;;;;12.40;4.15;;;;;;;20.59;77.17;100009.34;126361;1093;22786;-78
2021/07/29 07:11:31;;;;;;;10.53;4.20;;;;;;;20.67;77.00;99996.74;126405;1093;26302;-76
2021/07/29 07:14:05;;;;;;;12.60;3.83;;;;;;;20.75;76.48;99997.56;126338;1093;22821;-77
2021/07/29 07:16:39;;;;;;;12.20;4.45;;;;;;;20.83;76.19;99995.56;126363;1093;22944;-78
2021/07/29 07:19:11;;;;;;;11.45;3.73;;;;;;;20.88;75.91;99997.48;126333;1093;22868;-78
2021/07/29 07:21:42;;;;;;;11.88;3.78;;;;;;;20.93;75.40;99990.91;126371;1093;22738;-77
2021/07/29 07:24:13;;;;;;;11.03;4.28;;;;;;;21.01;75.41;100002.30;126385;1093;26302;-77
2021/07/29 07:26:45;;;;;;;9.30;3.50;;;;;;;21.09;75.65;100003.14;126333;1093;24454;-77
2021/07/29 07:29:16;;;;;;;10.45;4.15;;;;;;;21.18;75.58;99996.95;126367;1093;27360;-77
2021/07/29 07:31:48;;;;;;;9.20;3.95;;;;;;;21.26;75.47;99992.08;126546;1093;22799;-77
2021/07/29 07:34:19;;;;;;;10.98;4.08;;;;;;;21.35;75.11;99991.58;126366;1093;22944;-77
2021/07/29 07:36:51;;;;;;;13.78;4.38;;;;;;;21.44;75.27;99991.03;126305;1093;22813;-77
2021/07/29 07:39:22;;;;;;;8.88;3.63;;;;;;;21.53;74.36;99984.07;126307;1093;22776;-77
2021/07/29 07:41:55;;;;;;;9.85;3.15;;;;;;;21.60;74.24;99977.67;126423;1093;22794;-77
2021/07/29 07:44:27;;;;;;;10.23;3.57;;;;;;;21.66;73.80;99981.84;126342;1092;27651;-78
2021/07/29 07:46:58;;;;;;;9.10;3.33;;;;;;;21.73;73.16;99974.67;126339;1093;22829;-77
2021/07/29 07:49:29;;;;;;;7.05;2.30;;;;;;;21.81;72.87;99971.88;126359;1092;28464;-77
2021/07/29 07:52:01;;;;;;;9.63;2.15;;;;;;;21.84;71.20;99968.69;126393;1093;23038;-78
2021/07/29 07:54:32;;;;;;;8.60;2.97;;;;;;;21.89;71.35;99976.26;126344;1093;22800;-77
2021/07/29 07:57:04;;;;;;;6.78;2.03;;;;;;;21.93;69.95;99968.15;126385;1093;22759;-77
2021/07/29 07:59:38;;;;;;;6.03;1.80;;;;;;;21.98;69.36;99961.52;126378;1093;22892;-79
2021/07/29 08:02:10;;;;;;;6.45;2.00;;;;;;;22.08;68.91;99970.23;126351;1093;22871;-77
2021/07/29 08:04:42;;;;;;;5.40;2.08;;;;;;;22.21;69.68;99965.16;126314;1093;23362;-77
2021/07/29 08:07:13;;;;;;;7.10;2.10;;;;;;;22.31;68.48;99971.03;126322;1093;22801;-76
2021/07/29 08:09:45;;;;;;;7.80;2.00;;;;;;;22.41;68.05;99969.14;126355;1093;22870;-77
2021/07/29 08:12:16;;;;;;;7.05;2.00;;;;;;;22.46;67.63;99971.83;126385;1093;22934;-77
2021/07/29 08:14:48;;;;;;;7.00;1.88;;;;;;;22.51;67.26;99970.13;126333;1092;22834;-78
2021/07/29 08:17:20;;;;;;;6.50;1.83;;;;;;;22.53;66.84;99976.00;126369;1093;22795;-77
2021/07/29 08:19:54;;;;;;;7.85;1.80;;;;;;;22.50;66.57;99968.59;126341;1093;28353;-77
2021/07/29 08:22:26;;;;;;;7.78;2.23;;;;;;;22.51;66.60;99967.27;126284;1092;22912;-77
2021/07/29 08:24:57;;;;;;;8.18;1.75;;;;;;;22.50;66.36;99968.59;126314;1093;27722;-77
2021/07/29 08:27:33;;;;;;;7.20;2.18;;;;;;;22.51;65.88;99965.17;126289;1093;26251;-77
2021/07/29 08:30:09;;;;;;;9.53;2.05;;;;;;;22.53;66.63;99956.82;126330;1093;22797;-77
2021/07/29 08:32:40;;;;;;;8.95;2.53;;;;;;;22.68;66.41;99964.63;126356;1093;22803;-78
2021/07/29 08:35:14;;;;;;;8.58;2.08;;;;;;;22.84;66.07;99957.61;126326;1093;26338;-76
2021/07/29 08:37:48;;;;;;;8.38;2.60;;;;;;;22.95;65.95;99957.19;126502;1093;26382;-76
2021/07/29 08:40:21;;;;;;;8.20;2.73;;;;;;;22.99;65.02;99962.49;126476;1093;29592;-77
2021/07/29 08:42:53;;;;;;;10.75;2.40;;;;;;;23.13;65.24;99964.55;126332;1092;26172;-79
2021/07/29 08:45:24;;;;;;;7.28;2.30;;;;;;;23.22;65.46;99961.12;126371;1093;22876;-77
2021/07/29 08:47:58;;;;;;;8.43;3.13;;;;;;;23.39;65.18;99951.22;126392;1093;24390;-77
2021/07/29 08:50:30;;;;;;;7.53;2.90;;;;;;;23.57;64.41;99962.16;126530;1093;27296;-78
2021/07/29 08:53:01;;;;;;;7.15;2.55;;;;;;;23.64;64.23;99960.61;126326;1092;22877;-78
2021/07/29 08:55:32;;;;;;;7.28;2.55;;;;;;;23.73;64.04;99952.19;126352;1093;22938;-78
2021/07/29 08:58:05;;;;;;;6.35;2.15;;;;;;;23.84;63.54;99951.00;126336;1093;22780;-78
2021/07/29 09:00:37;;;;;;;7.68;2.35;;;;;;;23.93;61.73;99958.94;126296;1092;23034;-78
2021/07/29 09:03:27;;;;;;;6.15;2.23;;;;;;;23.99;62.49;99953.77;126361;1093;22870;-80
2021/07/29 09:06:06;;;;;;;9.98;2.68;;;;;;;24.11;62.09;99963.41;126389;1093;22954;-78
2021/07/29 09:08:52;;;;;;;5.95;2.20;;;;;;;24.24;61.71;99954.58;127789;1093;26690;-79
2021/07/29 09:11:33;;;;;;;7.43;2.30;;;;;;;24.40;60.34;99960.92;126440;1093;22799;-80
2021/07/29 09:14:16;;;;;;;6.30;1.90;;;;;;;24.47;60.40;99960.11;126294;1093;26092;-78
2021/07/29 09:16:58;;;;;;;6.10;1.93;;;;;;;24.58;60.70;99957.53;126400;1093;22874;-79
2021/07/29 09:19:36;;;;;;;6.28;1.95;;;;;;;24.64;60.13;99955.20;126344;1092;22789;-78
2021/07/29 09:22:25;;;;;;;8.55;1.90;;;;;;;24.72;58.34;99952.30;126416;1093;22844;-78
2021/07/29 09:25:07;;;;;;;7.73;2.20;;;;;;;24.66;59.96;99951.78;126342;1093;22810;-79
2021/07/29 09:27:47;;;;;;;6.90;2.18;;;;;;;24.67;59.55;99944.72;126510;1092;24200;-78
2021/07/29 09:30:22;;;;;;;7.35;2.80;;;;;;;24.73;58.80;99934.59;126404;1092;22810;-78
2021/07/29 09:33:04;;;;;;;6.93;2.43;;;;;;;24.80;58.35;99933.02;127151;1093;22813;-79
2021/07/29 09:35:48;;;;;;;7.08;2.05;;;;;;;24.81;58.11;99925.95;126612;1093;22839;-80
2021/07/29 09:38:29;;;;;;;7.95;2.30;;;;;;;24.85;58.32;99926.32;126537;1093;22865;-78
2021/07/29 09:41:01;;;;;;;5.80;1.80;;;;;;;25.03;56.98;99932.78;126479;1093;22957;-79
2021/07/29 09:43:34;;;;;;;5.85;2.08;;;;;;;25.18;57.37;99927.64;126330;1093;22783;-79
2021/07/29 09:46:19;;;;;;;5.10;2.10;;;;;;;25.28;56.15;99922.79;126425;1093;22811;-80
2021/07/29 09:48:52;;;;;;;8.05;1.60;;;;;;;25.25;54.99;99920.34;126352;1093;22899;-79
2021/07/29 09:51:27;;;;;;;7.70;2.13;;;;;;;25.21;55.62;99920.00;126439;1093;22845;-79
2021/07/29 09:54:02;;;;;;;6.20;2.30;;;;;;;25.16;55.53;99918.91;126527;1093;22787;-78
2021/07/29 09:56:35;;;;;;;10.28;1.88;;;;;;;25.06;54.96;99923.05;126393;1092;22805;-77
2021/07/29 09:59:07;;;;;;;6.67;1.97;;;;;;;24.94;54.09;99922.02;126307;1093;22786;-77
2021/07/29 10:01:39;;;;;;;6.68;1.75;;;;;;;24.84;55.00;99916.23;126351;1093;23863;-77
2021/07/29 10:04:14;;;;;;;6.05;1.58;;;;;;;24.73;53.77;99919.53;126352;1093;22783;-77
2021/07/29 10:06:50;;;;;;;6.78;1.60;;;;;;;24.58;54.05;99923.28;126472;1093;22934;-77
2021/07/29 10:09:24;;;;;;;4.10;1.55;;;;;;;24.50;54.26;99927.58;126267;1093;22796;-77
2021/07/29 10:11:58;;;;;;;7.25;2.08;;;;;;;24.39;54.12;99930.89;126367;1093;22774;-77
2021/07/29 10:14:51;;;;;;;6.85;2.13;;;;;;;24.28;54.37;99934.97;126394;1093;22868;-77
2021/07/29 10:18:03;;;;;;;6.40;2.30;;;;;;;24.20;54.51;99931.41;126565;1093;22803;-77
2021/07/29 10:20:35;;;;;;;7.35;2.50;;;;;;;24.17;54.94;99926.86;126414;1093;22994;-76
2021/07/29 10:23:52;;;;;;;10.60;2.10;;;;;;;24.15;54.58;99928.80;126250;1093;22780;-77
2021/07/29 10:26:26;;;;;;;9.50;2.05;;;;;;;24.12;54.41;99915.69;126470;1093;25974;-78
2021/07/29 10:29:27;;;;;;;6.00;2.23;;;;;;;24.09;54.22;99915.52;126502;1093;26254;-76
2021/07/29 10:31:59;;;;;;;8.85;2.55;;;;;;;24.06;54.56;99928.08;126494;1093;22967;-77
2021/07/29 10:34:34;;;;;;;8.13;2.30;;;;;;;24.03;54.24;99931.31;126408;1093;22764;-76
2021/07/29 10:37:08;;;;;;;6.43;1.95;;;;;;;24.00;54.27;99932.48;126273;1093;22823;-78
2021/07/29 10:40:02;;;;;;;8.23;1.98;;;;;;;23.95;53.59;99934.22;126435;1092;22802;-76
2021/07/29 10:42:34;;;;;;;10.18;2.30;;;;;;;23.87;53.95;99938.45;126306;1092;27224;-76
2021/07/29 10:45:07;;;;;;;7.10;1.85;;;;;;;23.83;53.42;99935.25;128690;1092;22869;-76
2021/07/29 10:47:44;;;;;;;7.85;1.70;;;;;;;23.81;53.29;99932.98;126326;1093;25308;-77
2021/07/29 10:50:24;;;;;;;7.83;1.83;;;;;;;23.82;53.08;99942.27;126295;1091;22813;-76
2021/07/29 10:52:56;;;;;;;5.18;1.60;;;;;;;23.87;52.65;99933.52;126325;1093;22783;-76
2021/07/29 10:55:30;;;;;;;6.93;1.68;;;;;;;24.00;52.07;99936.07;126400;1093;29426;-76
2021/07/29 10:58:12;;;;;;;6.55;1.60;;;;;;;24.15;51.05;99938.09;126289;1093;22783;-76
2021/07/29 11:00:54;;;;;;;5.55;1.50;;;;;;;24.31;50.53;99928.11;126372;1093;22979;-76
2021/07/29 11:03:26;;;;;;;7.78;1.70;;;;;;;24.44;50.39;99921.32;126381;1093;22878;-75
2021/07/29 11:06:05;;;;;;;5.48;1.35;;;;;;;24.52;49.01;99930.60;126245;1092;24329;-76
2021/07/29 11:08:38;;;;;;;6.63;1.40;;;;;;;24.49;50.06;99926.05;126345;1093;25880;-78
2021/07/29 11:11:11;;;;;;;5.93;1.55;;;;;;;24.50;50.13;99927.58;126287;1092;25881;-75
2021/07/29 11:13:48;;;;;;;8.33;1.90;;;;;;;24.55;50.32;99937.98;126322;1093;22780;-76
2021/07/29 11:16:20;;;;;;;4.53;1.50;;;;;;;24.64;50.12;99926.66;126396;1093;22804;-76
2021/07/29 11:19:02;;;;;;;4.83;1.48;;;;;;;24.77;50.07;99922.76;126294;1093;25849;-76
2021/07/29 11:21:35;;;;;;;8.00;1.65;;;;;;;24.87;50.15;99923.63;126393;1093;24316;-77
2021/07/29 11:24:24;;;;;;;6.20;1.50;;;;;;;25.00;49.20;99931.09;126382;1092;24949;-76
2021/07/29 11:26:57;;;;;;;6.37;1.60;;;;;;;25.07;48.65;99919.60;126444;1092;26280;-77
2021/07/29 11:29:28;;;;;;;7.43;1.70;;;;;;;25.06;48.17;99923.05;126491;1093;26041;-78
2021/07/29 11:32:01;;;;;;;6.13;1.78;;;;;;;25.00;48.41;99923.28;126321;1093;22782;-77
2021/07/29 11:34:34;;;;;;;8.25;1.95;;;;;;;24.97;48.26;99929.42;126533;1093;22803;-76
2021/07/29 11:37:06;;;;;;;5.13;1.40;;;;;;;24.92;47.75;99938.98;126449;1093;28630;-78
2021/07/29 11:39:41;;;;;;;9.73;1.70;;;;;;;24.86;47.91;99933.53;126433;1093;26274;-76
2021/07/29 11:42:12;;;;;;;7.98;1.70;;;;;;;24.83;47.38;99928.98;126220;1092;22786;-75
2021/07/29 11:44:47;;;;;;;4.38;1.43;;;;;;;24.84;48.26;99939.06;126302;1092;22799;-75
2021/07/29 11:47:19;;;;;;;6.55;1.55;;;;;;;24.98;48.28;99930.92;126349;1093;23572;-77
2021/07/29 11:49:54;;;;;;;5.58;1.65;;;;;;;25.12;48.47;99923.55;126207;1093;22813;-76